createdAt,value
2023-03-13T00:02:05.395Z,100235.30
2023-03-13T00:04:35.200Z,100222.02
2023-03-13T00:07:04.780Z,100217.66
2023-03-13T00:09:34.358Z,100218.12
2023-03-13T00:12:03.630Z,100211.66
2023-03-13T00:14:33.287Z,100201.62
2023-03-13T00:17:03.152Z,100189.80
2023-03-13T00:19:32.502Z,100187.38
2023-03-13T00:22:01.709Z,100178.55
2023-03-13T00:24:31.205Z,100165.18
2023-03-13T00:27:02.052Z,100166.78
2023-03-13T00:29:32.852Z,100154.63
2023-03-13T00:32:02.421Z,100145.06
2023-03-13T00:34:31.811Z,100144.03
2023-03-13T00:37:01.080Z,100133.05
2023-03-13T00:39:30.451Z,100132.08
2023-03-13T00:42:03.046Z,100123.77
2023-03-13T00:44:32.679Z,100124.47
2023-03-13T00:47:01.972Z,100109.43
2023-03-13T00:49:31.242Z,100109.17
2023-03-13T00:52:00.891Z,100110.33
2023-03-13T00:54:30.238Z,100097.70
2023-03-13T00:56:59.461Z,100095.02
2023-03-13T00:59:29.071Z,100099.91
2023-03-13T01:02:00.215Z,100093.48
2023-03-13T01:04:29.632Z,100077.98
2023-03-13T01:06:58.846Z,100069.38
2023-03-13T01:09:28.421Z,100069.60
2023-03-13T01:11:57.716Z,100062.45
2023-03-13T01:14:27.040Z,100063.36
2023-03-13T01:16:56.253Z,100056.74
2023-03-13T01:19:26.272Z,100059.42
2023-03-13T01:21:55.812Z,100056.23
2023-03-13T01:24:26.885Z,100039.67
2023-03-13T01:26:56.324Z,100027.00
2023-03-13T01:29:25.545Z,100026.09
2023-03-13T01:31:55.129Z,100026.23
2023-03-13T01:34:24.335Z,100019.52
2023-03-13T01:36:53.841Z,100015.09
2023-03-13T01:39:23.397Z,100003.30
2023-03-13T01:41:52.958Z,100009.87
2023-03-13T01:44:27.321Z,99997.30
2023-03-13T01:46:57.549Z,99986.48
2023-03-13T01:49:36.191Z,99988.28
2023-03-13T01:52:27.213Z,99977.86
2023-03-13T01:55:06.765Z,99960.61
2023-03-13T01:57:42.097Z,99961.03
2023-03-13T02:00:17.011Z,99952.09
2023-03-13T02:02:49.658Z,99943.62
2023-03-13T02:05:21.182Z,99939.73
2023-03-13T02:07:53.538Z,99938.27
2023-03-13T02:10:23.016Z,99926.69
2023-03-13T02:12:53.226Z,99920.11
2023-03-13T02:15:25.567Z,99910.34
2023-03-13T02:17:55.926Z,99905.58
2023-03-13T02:20:25.977Z,99908.26
2023-03-13T02:23:20.453Z,99911.06
2023-03-13T02:25:54.273Z,99903.49
2023-03-13T02:28:35.746Z,99890.99
2023-03-13T02:31:07.602Z,99908.50
2023-03-13T02:33:40.078Z,99893.57
2023-03-13T02:36:10.364Z,99897.56
2023-03-13T02:38:54.732Z,99889.20
2023-03-13T02:41:26.097Z,99879.37
2023-03-13T02:43:56.731Z,99870.52
2023-03-13T02:46:26.252Z,99880.74
2023-03-13T02:48:57.430Z,99883.38
2023-03-13T02:51:43.149Z,99879.94
2023-03-13T02:54:15.605Z,99892.59
2023-03-13T02:56:49.062Z,99882.06
2023-03-13T02:59:18.628Z,99887.89
2023-03-13T03:01:49.900Z,99885.74
2023-03-13T03:04:24.946Z,99885.46
2023-03-13T03:06:56.177Z,99893.41
2023-03-13T03:09:25.970Z,99870.66
2023-03-13T03:11:57.040Z,99867.24
2023-03-13T03:14:28.076Z,99869.73
2023-03-13T03:16:57.878Z,99867.45
2023-03-13T03:19:27.764Z,99868.09
2023-03-13T03:21:57.456Z,99872.36
2023-03-13T03:24:26.863Z,99866.41
2023-03-13T03:26:56.420Z,99871.87
2023-03-13T03:29:28.102Z,99864.13
2023-03-13T03:31:58.351Z,99869.72
2023-03-13T03:34:27.788Z,99865.45
2023-03-13T03:36:58.248Z,99857.58
2023-03-13T03:39:29.192Z,99859.86
2023-03-13T03:41:58.779Z,99863.17
2023-03-13T03:44:28.560Z,99857.61
2023-03-13T03:46:59.656Z,99857.09
2023-03-13T03:49:30.632Z,99865.83
2023-03-13T03:52:00.081Z,99864.52
2023-03-13T03:54:31.115Z,99849.36
2023-03-13T03:57:00.844Z,99849.23
2023-03-13T03:59:30.116Z,99836.55
2023-03-13T04:02:01.294Z,99813.46
2023-03-13T04:04:32.110Z,99825.34
2023-03-13T04:07:03.063Z,99835.55
2023-03-13T04:09:33.683Z,99821.20
2023-03-13T04:12:05.023Z,99823.86
2023-03-13T04:14:35.954Z,99810.16
2023-03-13T04:17:07.242Z,99797.47
2023-03-13T04:19:36.702Z,99814.48
2023-03-13T04:22:06.408Z,99802.44
2023-03-13T04:24:36.266Z,99804.40
2023-03-13T04:27:06.733Z,99797.95
2023-03-13T04:29:36.999Z,99789.05
2023-03-13T04:32:24.067Z,99804.22
2023-03-13T04:35:04.231Z,99787.88
2023-03-13T04:37:45.359Z,99794.33
2023-03-13T04:40:32.154Z,99796.00
2023-03-13T04:43:05.969Z,99780.13
2023-03-13T04:45:56.773Z,99775.03
2023-03-13T04:48:30.647Z,99780.63
2023-03-13T04:51:16.931Z,99771.20
2023-03-13T04:54:04.714Z,99766.43
2023-03-13T04:56:51.865Z,99769.38
2023-03-13T04:59:22.829Z,99769.70
2023-03-13T05:02:13.780Z,99770.38
2023-03-13T05:04:52.292Z,99759.33
2023-03-13T05:07:26.151Z,99753.34
2023-03-13T05:10:00.237Z,99763.39
2023-03-13T05:12:49.788Z,99747.55
2023-03-13T05:15:20.742Z,99738.64
2023-03-13T05:18:07.770Z,99739.74
2023-03-13T05:20:44.636Z,99739.42
2023-03-13T05:23:33.594Z,99744.91
2023-03-13T05:26:08.033Z,99753.63
2023-03-13T05:28:45.401Z,99753.02
2023-03-13T05:31:34.995Z,99738.82
2023-03-13T05:34:15.003Z,99743.59
2023-03-13T05:36:52.148Z,99746.55
2023-03-13T05:39:23.460Z,99726.59
2023-03-13T05:41:57.133Z,99740.40
2023-03-13T05:44:31.276Z,99732.80
2023-03-13T05:47:11.015Z,99735.00
2023-03-13T05:49:44.718Z,99732.23
2023-03-13T05:52:15.626Z,99721.67
2023-03-13T05:54:46.765Z,99733.58
2023-03-13T05:57:17.749Z,99720.02
2023-03-13T05:59:55.234Z,99704.86
2023-03-13T06:02:44.825Z,99708.45
2023-03-13T06:05:16.163Z,99724.14
2023-03-13T06:07:46.674Z,99720.70
2023-03-13T06:10:16.567Z,99711.45
2023-03-13T06:12:46.595Z,99722.19
2023-03-13T06:15:16.345Z,99711.77
2023-03-13T06:17:53.342Z,99720.02
2023-03-13T06:20:22.840Z,99715.02
2023-03-13T06:22:52.259Z,99716.66
2023-03-13T06:25:22.569Z,99721.94
2023-03-13T06:27:52.005Z,99710.34
2023-03-13T06:30:21.295Z,99714.78
2023-03-13T06:32:50.716Z,99727.05
2023-03-13T06:35:20.026Z,99722.23
2023-03-13T06:37:49.665Z,99726.53
2023-03-13T06:40:19.038Z,99725.06
2023-03-13T06:42:48.250Z,99715.39
2023-03-13T06:45:17.556Z,99726.73
2023-03-13T06:47:46.802Z,99712.35
2023-03-13T06:50:16.312Z,99714.67
2023-03-13T06:52:46.071Z,99716.97
2023-03-13T06:55:15.563Z,99730.98
2023-03-13T06:57:44.890Z,99708.56
2023-03-13T07:00:15.260Z,99738.13
2023-03-13T07:02:44.823Z,99722.62
2023-03-13T07:05:14.697Z,99720.50
2023-03-13T07:07:45.169Z,99723.63
2023-03-13T07:10:14.744Z,99716.31
2023-03-13T07:12:44.528Z,99713.39
2023-03-13T07:15:13.760Z,99722.57
2023-03-13T07:17:43.140Z,99723.58
2023-03-13T07:20:13.748Z,99720.59
2023-03-13T07:22:44.028Z,99732.13
2023-03-13T07:25:13.252Z,99724.92
2023-03-13T07:27:42.554Z,99728.20
2023-03-13T07:30:12.931Z,99726.73
2023-03-13T07:32:42.225Z,99725.59
2023-03-13T07:35:11.572Z,99724.81
2023-03-13T07:37:40.878Z,99726.91
2023-03-13T07:40:11.444Z,99711.09
2023-03-13T07:42:44.193Z,99712.75
2023-03-13T07:45:13.566Z,99721.97
2023-03-13T07:47:42.997Z,99713.88
2023-03-13T07:50:12.995Z,99725.88
2023-03-13T07:52:42.210Z,99714.62
2023-03-13T07:55:11.513Z,99727.96
2023-03-13T07:57:40.854Z,99722.50
2023-03-13T08:00:13.444Z,99728.80
2023-03-13T08:02:42.904Z,99710.48
2023-03-13T08:05:12.083Z,99732.42
2023-03-13T08:07:43.566Z,99728.45
2023-03-13T08:10:13.450Z,99721.59
2023-03-13T08:12:42.680Z,99742.75
2023-03-13T08:15:12.440Z,99732.82
2023-03-13T08:17:41.667Z,99722.71
2023-03-13T08:20:12.139Z,99722.71
2023-03-13T08:22:41.367Z,99709.77
2023-03-13T08:25:11.206Z,99714.11
2023-03-13T08:27:40.690Z,99696.52
2023-03-13T08:30:10.629Z,99712.24
2023-03-13T08:32:40.398Z,99712.01
2023-03-13T08:35:10.197Z,99705.89
2023-03-13T08:37:39.686Z,99701.72
2023-03-13T08:40:13.612Z,99681.95
2023-03-13T08:42:42.876Z,99687.59
2023-03-13T08:45:12.425Z,99657.98
2023-03-13T08:47:41.787Z,99649.34
2023-03-13T08:50:11.557Z,99653.59
2023-03-13T08:52:40.798Z,99672.16
2023-03-13T08:55:10.490Z,99660.39
2023-03-13T08:57:39.970Z,99665.98
2023-03-13T09:00:11.192Z,99668.23
2023-03-13T09:02:40.481Z,99659.98
2023-03-13T09:05:10.058Z,99649.15
2023-03-13T09:07:39.855Z,99643.66
2023-03-13T09:10:09.848Z,99656.30
2023-03-13T09:12:39.127Z,99641.13
2023-03-13T09:15:09.597Z,99641.41
2023-03-13T09:17:38.886Z,99645.98
2023-03-13T09:20:09.418Z,99641.10
2023-03-13T09:22:38.653Z,99638.26
2023-03-13T09:25:09.021Z,99624.41
2023-03-13T09:27:38.240Z,99617.79
2023-03-13T09:30:08.708Z,99617.11
2023-03-13T09:32:38.080Z,99627.25
2023-03-13T09:35:08.394Z,99619.26
2023-03-13T09:37:37.604Z,99616.47
2023-03-13T09:40:08.493Z,99619.03
2023-03-13T09:42:43.450Z,99627.44
2023-03-13T09:45:15.171Z,99607.05
2023-03-13T09:47:53.007Z,99608.95
2023-03-13T09:50:27.444Z,99602.49
2023-03-13T09:53:02.420Z,99597.56
2023-03-13T09:55:33.978Z,99603.01
2023-03-13T09:58:06.387Z,99609.31
2023-03-13T10:00:41.283Z,99594.72
2023-03-13T10:03:13.742Z,99601.30
2023-03-13T10:05:51.105Z,99603.61
2023-03-13T10:08:23.643Z,99606.78
2023-03-13T10:10:56.990Z,99601.87
2023-03-13T10:14:02.719Z,99594.20
2023-03-13T10:16:35.298Z,99587.20
2023-03-13T10:19:05.555Z,99591.45
2023-03-13T10:21:36.439Z,99563.76
2023-03-13T10:24:08.928Z,99597.19
2023-03-13T10:26:39.457Z,99569.14
2023-03-13T10:29:20.834Z,99591.16
2023-03-13T10:32:01.622Z,99602.19
2023-03-13T10:34:57.117Z,99578.43
2023-03-13T10:37:29.494Z,99576.70
2023-03-13T10:40:25.540Z,99569.36
2023-03-13T10:42:57.476Z,99561.64
2023-03-13T10:45:27.148Z,99565.89
2023-03-13T10:47:58.281Z,99557.09
2023-03-13T10:50:29.884Z,99559.78
2023-03-13T10:52:59.377Z,99553.70
2023-03-13T10:55:28.807Z,99548.64
2023-03-13T10:58:00.245Z,99545.69
2023-03-13T11:00:39.906Z,99529.88
2023-03-13T11:03:22.138Z,99546.91
2023-03-13T11:05:59.764Z,99541.39
2023-03-13T11:08:32.150Z,99526.69
2023-03-13T11:11:06.706Z,99537.78
2023-03-13T11:13:45.032Z,99532.56
2023-03-13T11:16:23.485Z,99527.76
2023-03-13T11:19:12.635Z,99535.80
2023-03-13T11:21:57.106Z,99531.53
2023-03-13T11:24:46.444Z,99516.98
2023-03-13T11:27:28.017Z,99508.94
2023-03-13T11:30:06.952Z,99510.80
2023-03-13T11:32:56.537Z,99526.02
2023-03-13T11:35:46.976Z,99501.80
2023-03-13T11:38:28.710Z,99502.75
2023-03-13T11:41:04.148Z,99504.02
2023-03-13T11:43:42.634Z,99485.19
2023-03-13T11:46:17.858Z,99470.52
2023-03-13T11:49:02.114Z,99499.45
2023-03-13T11:51:37.506Z,99483.23
2023-03-13T11:54:40.255Z,99494.52
2023-03-13T11:57:21.072Z,99487.34
2023-03-13T11:59:56.137Z,99485.20
2023-03-13T12:02:28.113Z,99442.46
2023-03-13T12:05:03.397Z,99471.28
2023-03-13T12:07:48.211Z,99494.64
2023-03-13T12:10:26.401Z,99458.63
2023-03-13T12:13:14.293Z,99467.06
2023-03-13T12:15:45.667Z,99472.51
2023-03-13T12:18:36.293Z,99475.36
2023-03-13T12:21:24.387Z,99475.36
2023-03-13T12:24:17.744Z,99457.66
2023-03-13T12:26:50.169Z,99463.34
2023-03-13T12:29:20.486Z,99470.87
2023-03-13T12:32:14.080Z,99487.61
2023-03-13T12:35:02.467Z,99450.05
2023-03-13T12:37:39.824Z,99443.29
2023-03-13T12:40:24.037Z,99442.30
2023-03-13T12:43:05.456Z,99433.86
2023-03-13T12:45:36.914Z,99454.33
2023-03-13T12:48:09.627Z,99422.44
2023-03-13T12:50:50.906Z,99427.94
2023-03-13T12:53:38.748Z,99417.12
2023-03-13T12:56:11.232Z,99398.95
2023-03-13T12:58:56.948Z,99399.61
2023-03-13T13:01:31.771Z,99419.66
2023-03-13T13:04:22.530Z,99425.62
2023-03-13T13:07:02.698Z,99398.11
2023-03-13T13:09:39.246Z,99439.36
2023-03-13T13:12:31.160Z,99420.73
2023-03-13T13:15:04.223Z,99441.51
2023-03-13T13:17:48.371Z,99433.84
2023-03-13T13:20:38.589Z,99440.11
2023-03-13T13:23:31.855Z,99447.36
2023-03-13T13:26:30.156Z,99429.27
2023-03-13T13:29:01.414Z,99448.16
2023-03-13T13:31:51.791Z,99429.13
2023-03-13T13:34:34.980Z,99448.24
2023-03-13T13:37:25.588Z,99444.48
2023-03-13T13:39:56.472Z,99441.03
2023-03-13T13:42:38.790Z,99438.40
2023-03-13T13:45:21.182Z,99427.69
2023-03-13T13:47:51.948Z,99440.58
2023-03-13T13:50:24.367Z,99432.08
2023-03-13T13:52:54.287Z,99437.47
2023-03-13T13:55:29.456Z,99419.38
2023-03-13T13:58:13.469Z,99407.95
2023-03-13T14:01:01.613Z,99415.81
2023-03-13T14:03:33.252Z,99421.15
2023-03-13T14:06:19.879Z,99389.61
2023-03-13T14:08:51.149Z,99390.36
2023-03-13T14:11:31.484Z,99395.06
2023-03-13T14:14:11.348Z,99376.02
2023-03-13T14:16:42.499Z,99387.61
2023-03-13T14:19:31.037Z,99387.92
2023-03-13T14:22:02.755Z,99386.34
2023-03-13T14:24:32.041Z,99368.11
2023-03-13T14:27:01.786Z,99370.78
2023-03-13T14:29:31.091Z,99372.69
2023-03-13T14:32:00.966Z,99358.72
2023-03-13T14:34:32.719Z,99345.16
2023-03-13T14:37:17.752Z,99350.36
2023-03-13T14:39:37.677Z,99342.77
2023-03-13T14:42:15.018Z,99324.58
2023-03-13T14:44:46.717Z,99324.59
2023-03-13T14:47:19.344Z,99342.92
2023-03-13T14:49:48.933Z,99340.23
2023-03-13T14:52:25.924Z,99340.53
2023-03-13T14:54:58.239Z,99336.29
2023-03-13T14:57:29.035Z,99329.99
2023-03-13T15:00:17.783Z,99337.30
2023-03-13T15:02:47.444Z,99352.36
2023-03-13T15:05:35.170Z,99345.28
2023-03-13T15:08:04.691Z,99326.86
2023-03-13T15:10:37.685Z,99339.58
2023-03-13T15:13:22.466Z,99342.45
2023-03-13T15:15:53.743Z,99325.70
2023-03-13T15:18:28.661Z,99331.00
2023-03-13T15:21:01.040Z,99323.03
2023-03-13T15:23:30.706Z,99313.97
2023-03-13T15:26:00.214Z,99310.27
2023-03-13T15:28:30.871Z,99286.82
2023-03-13T15:31:00.357Z,99282.77
2023-03-13T15:33:30.756Z,99296.69
2023-03-13T15:36:00.362Z,99278.39
2023-03-13T15:38:30.184Z,99268.56
2023-03-13T15:40:59.416Z,99264.39
2023-03-13T15:43:29.079Z,99261.23
2023-03-13T15:45:58.928Z,99259.14
2023-03-13T15:48:31.293Z,99258.23
2023-03-13T15:51:04.320Z,99253.37
2023-03-13T15:53:35.774Z,99237.59
2023-03-13T15:56:08.627Z,99252.06
2023-03-13T15:58:38.540Z,99248.88
2023-03-13T16:01:10.023Z,99227.34
2023-03-13T16:03:39.653Z,99227.52
2023-03-13T16:06:21.234Z,99231.08
2023-03-13T16:08:50.586Z,99225.78
2023-03-13T16:11:20.197Z,99224.42
2023-03-13T16:13:50.147Z,99223.70
2023-03-13T16:16:29.522Z,99219.30
2023-03-13T16:19:00.537Z,99215.09
2023-03-13T16:21:33.106Z,99203.37
2023-03-13T16:24:01.688Z,99205.19
2023-03-13T16:26:32.445Z,99195.09
2023-03-13T16:29:02.082Z,99192.14
2023-03-13T16:31:33.284Z,99175.41
2023-03-13T16:34:03.823Z,99181.21
2023-03-13T16:36:33.621Z,99173.03
2023-03-13T16:39:08.468Z,99170.78
2023-03-13T16:41:38.148Z,99176.08
2023-03-13T16:44:07.593Z,99178.63
2023-03-13T16:46:46.006Z,99170.69
2023-03-13T16:49:15.384Z,99168.00
2023-03-13T16:51:44.892Z,99163.49
2023-03-13T16:54:14.126Z,99172.43
2023-03-13T16:56:44.799Z,99174.55
2023-03-13T16:59:16.643Z,99180.86
2023-03-13T17:01:47.278Z,99185.42
2023-03-13T17:04:16.716Z,99183.73
2023-03-13T17:06:47.065Z,99182.66
2023-03-13T17:09:18.025Z,99184.81
2023-03-13T17:11:47.753Z,99181.62
2023-03-13T17:14:16.962Z,99192.35
2023-03-13T17:16:46.915Z,99193.43
2023-03-13T17:19:17.220Z,99183.95
2023-03-13T17:21:46.559Z,99184.23
2023-03-13T17:24:15.796Z,99181.80
2023-03-13T17:26:45.290Z,99179.84
2023-03-13T17:29:18.285Z,99185.70
2023-03-13T17:31:47.581Z,99175.40
2023-03-13T17:34:16.919Z,99172.96
2023-03-13T17:36:47.568Z,99168.09
2023-03-13T17:39:16.842Z,99161.31
2023-03-13T17:41:46.151Z,99160.22
2023-03-13T17:44:15.376Z,99156.78
2023-03-13T17:46:47.865Z,99166.41
2023-03-13T17:49:17.326Z,99158.52
2023-03-13T17:51:48.506Z,99157.84
2023-03-13T17:54:18.543Z,99156.89
2023-03-13T17:56:48.361Z,99168.40
2023-03-13T17:59:19.193Z,99162.78
2023-03-13T18:01:48.649Z,99158.48
2023-03-13T18:04:17.915Z,99152.44
2023-03-13T18:06:50.368Z,99153.64
2023-03-13T18:09:21.320Z,99132.98
2023-03-13T18:11:51.375Z,99150.02
2023-03-13T18:14:21.445Z,99144.98
2023-03-13T18:16:52.234Z,99138.94
2023-03-13T18:19:23.756Z,99140.08
2023-03-13T18:21:55.064Z,99136.86
2023-03-13T18:24:24.419Z,99139.78
2023-03-13T18:26:53.779Z,99124.80
2023-03-13T18:29:29.190Z,99128.82
2023-03-13T18:32:00.827Z,99124.86
2023-03-13T18:34:30.245Z,99120.05
2023-03-13T18:37:01.528Z,99127.41
2023-03-13T18:39:32.487Z,99127.14
2023-03-13T18:42:02.049Z,99126.24
2023-03-13T18:44:31.721Z,99126.15
2023-03-13T18:47:00.980Z,99129.88
2023-03-13T18:49:30.444Z,99121.20
2023-03-13T18:51:59.722Z,99127.33
2023-03-13T18:54:29.048Z,99115.53
2023-03-13T18:56:58.609Z,99110.63
2023-03-13T18:59:27.952Z,99110.23
2023-03-13T19:01:57.381Z,99101.67
2023-03-13T19:04:26.666Z,99094.62
2023-03-13T19:06:56.433Z,99085.63
2023-03-13T19:09:42.760Z,99098.16
2023-03-13T19:11:56.887Z,99106.31
2023-03-13T19:14:26.256Z,99099.92
2023-03-13T19:16:57.924Z,99097.28
2023-03-13T19:19:27.965Z,99093.15
2023-03-13T19:21:58.756Z,99085.53
2023-03-13T19:24:28.776Z,99078.72
2023-03-13T19:27:01.120Z,99078.06
2023-03-13T19:29:32.145Z,99082.60
2023-03-13T19:32:03.119Z,99070.14
2023-03-13T19:34:32.395Z,99065.98
2023-03-13T19:37:01.627Z,99057.67
2023-03-13T19:39:31.098Z,99062.69
2023-03-13T19:42:00.403Z,99055.99
2023-03-13T19:44:29.737Z,99059.55
2023-03-13T19:47:00.511Z,99056.39
2023-03-13T19:49:30.018Z,99058.50
2023-03-13T19:52:00.229Z,99049.47
2023-03-13T19:54:29.535Z,99052.32
2023-03-13T19:56:58.894Z,99050.91
2023-03-13T19:59:28.814Z,99049.11
2023-03-13T20:01:59.692Z,99050.39
2023-03-13T20:04:29.510Z,99044.50
2023-03-13T20:06:59.009Z,99039.91
2023-03-13T20:09:28.794Z,99040.56
2023-03-13T20:11:58.025Z,99041.91
2023-03-13T20:14:28.334Z,99032.67
2023-03-13T20:16:57.973Z,99039.99
2023-03-13T20:19:29.246Z,99045.83
2023-03-13T20:22:04.414Z,99040.08
2023-03-13T20:24:34.653Z,99045.38
2023-03-13T20:27:04.157Z,99028.73
2023-03-13T20:29:34.258Z,99031.78
2023-03-13T20:32:05.313Z,99038.81
2023-03-13T20:34:35.651Z,99039.06
2023-03-13T20:37:05.244Z,99038.85
2023-03-13T20:39:36.631Z,99040.30
2023-03-13T20:42:07.845Z,99041.74
2023-03-13T20:44:37.507Z,99032.78
2023-03-13T20:47:06.697Z,99030.11
2023-03-13T20:49:36.060Z,99031.55
2023-03-13T20:52:05.549Z,99022.16
2023-03-13T20:54:35.854Z,99024.44
2023-03-13T20:57:05.368Z,99027.36
2023-03-13T20:59:34.984Z,99033.42
2023-03-13T21:02:04.570Z,99051.06
2023-03-13T21:04:34.403Z,99053.61
2023-03-13T21:07:04.753Z,99041.07
2023-03-13T21:09:35.584Z,99042.11
2023-03-13T21:12:05.826Z,99043.98
2023-03-13T21:14:36.566Z,99042.91
2023-03-13T21:17:05.903Z,99048.70
2023-03-13T21:19:35.202Z,99049.73
2023-03-13T21:22:04.597Z,99045.88
2023-03-13T21:24:34.288Z,99041.08
2023-03-13T21:27:03.804Z,99027.25
2023-03-13T21:29:33.492Z,99007.25
2023-03-13T21:32:02.932Z,99012.03
2023-03-13T21:34:32.316Z,98998.48
2023-03-13T21:37:01.620Z,98989.56
2023-03-13T21:39:31.693Z,98972.36
2023-03-13T21:42:02.338Z,98961.48
2023-03-13T21:44:31.679Z,98944.13
2023-03-13T21:47:01.259Z,98942.69
2023-03-13T21:49:30.669Z,98942.78
2023-03-13T21:51:59.924Z,98942.19
2023-03-13T21:54:29.497Z,98947.63
2023-03-13T21:56:59.264Z,98950.81
2023-03-13T21:59:30.342Z,98954.38
2023-03-13T22:01:59.910Z,98954.40
2023-03-13T22:04:30.922Z,98953.13
2023-03-13T22:07:08.609Z,98959.40
2023-03-13T22:09:40.334Z,98960.53
2023-03-13T22:12:17.272Z,98970.00
2023-03-13T22:14:51.215Z,98959.59
2023-03-13T22:17:26.940Z,98965.72
2023-03-13T22:19:58.395Z,98963.29
2023-03-13T22:22:29.435Z,98958.90
2023-03-13T22:25:00.370Z,98948.55
2023-03-13T22:27:35.620Z,98950.14
2023-03-13T22:30:08.975Z,98942.67
2023-03-13T22:32:53.338Z,98937.02
2023-03-13T22:35:46.693Z,98939.40
2023-03-13T22:38:15.964Z,98941.47
2023-03-13T22:40:45.233Z,98931.83
2023-03-13T22:43:15.642Z,98934.77
2023-03-13T22:45:44.882Z,98943.06
2023-03-13T22:48:14.116Z,98941.97
2023-03-13T22:50:43.439Z,98947.58
2023-03-13T22:53:13.206Z,98934.39
2023-03-13T22:55:42.594Z,98944.83
2023-03-13T22:58:12.064Z,98945.13
2023-03-13T23:00:41.318Z,98951.73
2023-03-13T23:03:10.547Z,98952.67
2023-03-13T23:05:40.921Z,98955.62
2023-03-13T23:08:10.493Z,98951.42
2023-03-13T23:10:39.770Z,98946.95
2023-03-13T23:13:09.198Z,98953.16
2023-03-13T23:15:55.265Z,98947.95
2023-03-13T23:18:11.474Z,98951.08
2023-03-13T23:20:40.735Z,98941.47
2023-03-13T23:23:10.337Z,98929.33
2023-03-13T23:25:40.231Z,98930.16
2023-03-13T23:28:09.471Z,98927.54
2023-03-13T23:30:39.024Z,98935.55
2023-03-13T23:33:08.681Z,98918.64
2023-03-13T23:35:38.805Z,98937.77
2023-03-13T23:38:08.256Z,98947.91
2023-03-13T23:40:37.846Z,98934.51
2023-03-13T23:43:07.099Z,98946.55
2023-03-13T23:45:37.358Z,98948.58
2023-03-13T23:48:06.962Z,98951.28
2023-03-13T23:50:37.558Z,98960.69
2023-03-13T23:53:07.155Z,98943.38
2023-03-13T23:55:36.374Z,98957.41
2023-03-13T23:58:05.913Z,98970.02
